createdAt,value
2023-02-22T00:00:32.326Z,11.50
2023-02-22T00:01:32.365Z,11.90
2023-02-22T00:02:32.299Z,11.80
2023-02-22T00:03:32.318Z,13.70
2023-02-22T00:04:32.276Z,11.00
2023-02-22T00:05:32.287Z,10.50
2023-02-22T00:06:32.786Z,10.80
2023-02-22T00:07:32.292Z,11.30
2023-02-22T00:08:32.251Z,10.90
2023-02-22T00:09:32.804Z,10.20
2023-02-22T00:10:32.212Z,11.00
2023-02-22T00:11:32.218Z,11.80
2023-02-22T00:12:32.229Z,11.20
2023-02-22T00:13:32.194Z,11.20
2023-02-22T00:14:32.810Z,12.70
2023-02-22T00:15:32.166Z,11.70
2023-02-22T00:16:32.223Z,10.40
2023-02-22T00:17:32.470Z,12.60
2023-02-22T00:18:32.194Z,10.40
2023-02-22T00:19:32.126Z,10.60
2023-02-22T00:20:32.089Z,11.10
2023-02-22T00:21:32.104Z,11.00
2023-02-22T00:22:32.144Z,12.50
2023-02-22T00:23:32.134Z,10.90
2023-02-22T00:24:32.041Z,11.50
2023-02-22T00:25:32.048Z,9.50
2023-02-22T00:26:32.308Z,11.50
2023-02-22T00:27:32.029Z,10.70
2023-02-22T00:28:32.006Z,10.20
2023-02-22T00:29:32.018Z,10.80
2023-02-22T00:30:32.336Z,10.90
2023-02-22T00:31:32.024Z,10.80
2023-02-22T00:32:31.959Z,9.90
2023-02-22T00:33:32.082Z,9.50
2023-02-22T00:34:32.072Z,12.10
2023-02-22T00:35:31.925Z,11.10
2023-02-22T00:36:31.908Z,11.30
2023-02-22T00:37:31.902Z,10.90
2023-02-22T00:38:32.482Z,10.50
2023-02-22T00:39:32.376Z,11.40
2023-02-22T00:40:31.845Z,10.90
2023-02-22T00:41:31.852Z,11.50
2023-02-22T00:42:31.850Z,12.20
2023-02-22T00:43:31.832Z,10.60
2023-02-22T00:44:31.827Z,12.10
2023-02-22T00:45:31.876Z,11.10
2023-02-22T00:46:31.812Z,10.80
2023-02-22T00:47:31.796Z,10.60
2023-02-22T00:48:31.780Z,11.70
2023-02-22T00:49:31.778Z,10.40
2023-02-22T00:50:31.737Z,12.00
2023-02-22T00:51:31.797Z,12.20
2023-02-22T00:52:31.708Z,9.90
2023-02-22T00:53:31.799Z,10.30
2023-02-22T00:54:31.816Z,11.20
2023-02-22T00:55:31.706Z,10.30
2023-02-22T00:56:31.688Z,11.70
2023-02-22T00:57:31.827Z,11.60
2023-02-22T00:58:31.680Z,11.40
2023-02-22T00:59:31.640Z,9.40
2023-02-22T01:00:31.648Z,10.50
2023-02-22T01:01:31.695Z,9.70
2023-02-22T01:02:31.834Z,11.50
2023-02-22T01:03:31.633Z,11.00
2023-02-22T01:04:31.610Z,10.70
2023-02-22T01:05:31.834Z,11.20
2023-02-22T01:06:31.818Z,10.60
2023-02-22T01:07:31.548Z,11.20
2023-02-22T01:08:31.584Z,10.70
2023-02-22T01:09:31.530Z,10.70
2023-02-22T01:10:31.636Z,10.80
2023-02-22T01:11:31.541Z,12.30
2023-02-22T01:12:31.507Z,11.60
2023-02-22T01:13:31.737Z,11.50
2023-02-22T01:14:31.494Z,10.20
2023-02-22T01:15:31.461Z,11.70
2023-02-22T01:16:31.510Z,10.90
2023-02-22T01:17:31.464Z,12.00
2023-02-22T01:18:31.857Z,11.70
2023-02-22T01:19:31.400Z,10.50
2023-02-22T01:20:31.410Z,10.40
2023-02-22T01:21:31.419Z,14.40
2023-02-22T01:22:31.396Z,12.60
2023-02-22T01:23:31.354Z,9.70
2023-02-22T01:24:31.380Z,11.10
2023-02-22T01:25:31.365Z,10.10
2023-02-22T01:26:31.479Z,10.80
2023-02-22T01:27:31.321Z,10.10
2023-02-22T01:28:31.312Z,10.90
2023-02-22T01:29:31.851Z,11.10
2023-02-22T01:30:31.434Z,11.80
2023-02-22T01:31:31.324Z,12.30
2023-02-22T01:32:31.257Z,11.60
2023-02-22T01:33:31.246Z,13.20
2023-02-22T01:34:31.438Z,10.40
2023-02-22T01:35:31.208Z,11.10
2023-02-22T01:36:31.227Z,11.70
2023-02-22T01:37:31.215Z,9.60
2023-02-22T01:38:31.856Z,11.50
2023-02-22T01:39:31.169Z,10.30
2023-02-22T01:40:31.180Z,10.50
2023-02-22T01:41:31.146Z,11.20
2023-02-22T01:42:31.291Z,11.30
2023-02-22T01:43:31.192Z,11.10
2023-02-22T01:44:31.123Z,9.80
2023-02-22T01:45:31.853Z,10.70
2023-02-22T01:46:31.109Z,9.80
2023-02-22T01:47:31.864Z,10.90
2023-02-22T01:48:31.074Z,11.80
2023-02-22T01:49:31.744Z,10.50
2023-02-22T01:50:32.131Z,10.20
2023-02-22T01:51:31.866Z,11.10
2023-02-22T01:52:31.423Z,9.10
2023-02-22T01:53:31.021Z,10.70
2023-02-22T01:54:31.027Z,11.50
2023-02-22T01:55:30.978Z,9.20
2023-02-22T01:56:31.046Z,10.60
2023-02-22T01:57:30.952Z,9.20
2023-02-22T01:58:31.149Z,9.30
2023-02-22T01:59:30.975Z,10.60
2023-02-22T02:00:30.938Z,9.60
2023-02-22T02:01:31.231Z,9.60
2023-02-22T02:02:30.912Z,10.80
2023-02-22T02:03:30.886Z,10.00
2023-02-22T02:04:30.873Z,10.30
2023-02-22T02:05:30.881Z,8.90
2023-02-22T02:06:31.118Z,9.20
2023-02-22T02:07:30.834Z,9.70
2023-02-22T02:08:31.022Z,9.60
2023-02-22T02:09:30.877Z,10.20
2023-02-22T02:10:30.820Z,9.50
2023-02-22T02:11:30.816Z,10.20
2023-02-22T02:12:30.794Z,10.60
2023-02-22T02:13:30.786Z,10.10
2023-02-22T02:14:30.899Z,9.70
2023-02-22T02:15:30.741Z,8.00
2023-02-22T02:16:30.788Z,9.70
2023-02-22T02:17:30.870Z,9.10
2023-02-22T02:18:30.873Z,9.00
2023-02-22T02:19:30.722Z,9.50
2023-02-22T02:20:30.705Z,9.60
2023-02-22T02:21:30.676Z,9.30
2023-02-22T02:22:30.882Z,10.40
2023-02-22T02:23:30.783Z,8.30
2023-02-22T02:24:30.656Z,9.80
2023-02-22T02:25:30.886Z,8.40
2023-02-22T02:26:30.659Z,10.00
2023-02-22T02:27:30.610Z,8.60
2023-02-22T02:28:30.607Z,10.40
2023-02-22T02:29:30.896Z,7.60
2023-02-22T02:30:30.943Z,9.60
2023-02-22T02:31:30.564Z,13.30
2023-02-22T02:32:30.936Z,9.30
2023-02-22T02:33:30.885Z,8.60
2023-02-22T02:34:30.874Z,10.10
2023-02-22T02:35:30.506Z,8.60
2023-02-22T02:36:31.310Z,13.80
2023-02-22T02:37:31.712Z,10.20
2023-02-22T02:38:30.669Z,10.60
2023-02-22T02:39:30.484Z,8.10
2023-02-22T02:40:30.519Z,9.90
2023-02-22T02:41:30.492Z,8.60
2023-02-22T02:42:30.535Z,9.40
2023-02-22T02:43:30.432Z,8.40
2023-02-22T02:44:30.417Z,8.60
2023-02-22T02:45:30.629Z,9.00
2023-02-22T02:46:30.423Z,9.30
2023-02-22T02:47:30.375Z,8.60
2023-02-22T02:48:30.713Z,8.40
2023-02-22T02:49:30.747Z,8.70
2023-02-22T02:50:30.594Z,9.50
2023-02-22T02:51:30.831Z,10.20
2023-02-22T02:52:30.332Z,9.20
2023-02-22T02:53:30.303Z,8.90
2023-02-22T02:54:30.476Z,8.10
2023-02-22T02:55:31.745Z,8.90
2023-02-22T02:56:30.277Z,9.40
2023-02-22T02:57:30.861Z,7.50
2023-02-22T02:58:30.269Z,6.50
2023-02-22T02:59:30.229Z,9.30
2023-02-22T03:00:30.561Z,9.20
2023-02-22T03:01:30.228Z,8.40
2023-02-22T03:02:30.909Z,7.10
2023-02-22T03:03:30.384Z,7.50
2023-02-22T03:04:30.195Z,7.40
2023-02-22T03:05:30.308Z,7.60
2023-02-22T03:06:30.918Z,7.60
2023-02-22T03:07:30.177Z,7.70
2023-02-22T03:08:30.136Z,7.80
2023-02-22T03:09:30.966Z,7.50
2023-02-22T03:10:30.932Z,7.10
2023-02-22T03:11:30.105Z,7.50
2023-02-22T03:12:30.628Z,7.20
2023-02-22T03:13:30.824Z,6.10
2023-02-22T03:14:30.279Z,8.40
2023-02-22T03:15:30.471Z,7.40
2023-02-22T03:16:30.140Z,7.80
2023-02-22T03:17:30.956Z,7.30
2023-02-22T03:18:30.143Z,8.80
2023-02-22T03:19:29.999Z,7.70
2023-02-22T03:20:30.929Z,7.50
2023-02-22T03:21:30.645Z,8.30
2023-02-22T03:22:30.940Z,8.10
2023-02-22T03:23:29.946Z,9.20
2023-02-22T03:24:29.954Z,7.00
2023-02-22T03:25:29.941Z,7.10
2023-02-22T03:26:29.931Z,7.80
2023-02-22T03:27:29.923Z,7.20
2023-02-22T03:28:29.955Z,8.00
2023-02-22T03:29:29.901Z,8.20
2023-02-22T03:30:29.986Z,8.20
2023-02-22T03:31:29.935Z,9.60
2023-02-22T03:32:29.884Z,7.50
2023-02-22T03:33:29.837Z,7.70
2023-02-22T03:34:29.937Z,6.70
2023-02-22T03:35:29.848Z,7.70
2023-02-22T03:36:29.818Z,7.00
2023-02-22T03:37:29.938Z,8.00
2023-02-22T03:38:29.798Z,7.60
2023-02-22T03:39:29.762Z,7.70
2023-02-22T03:40:29.758Z,8.30
2023-02-22T03:41:29.959Z,7.90
2023-02-22T03:42:29.772Z,7.80
2023-02-22T03:43:29.722Z,6.90
2023-02-22T03:44:29.720Z,7.50
2023-02-22T03:45:29.694Z,7.30
2023-02-22T03:46:29.767Z,9.10
2023-02-22T03:47:29.703Z,7.60
2023-02-22T03:48:29.695Z,7.00
2023-02-22T03:49:29.862Z,8.90
2023-02-22T03:50:29.969Z,9.80
2023-02-22T03:51:29.631Z,8.50
2023-02-22T03:52:30.230Z,8.20
2023-02-22T03:53:29.615Z,8.00
2023-02-22T03:54:29.834Z,8.10
2023-02-22T03:55:30.063Z,9.00
2023-02-22T03:56:29.590Z,8.00
2023-02-22T03:57:30.698Z,7.60
2023-02-22T03:58:29.758Z,7.70
2023-02-22T03:59:29.542Z,7.60
2023-02-22T04:00:29.540Z,7.60
2023-02-22T04:01:29.954Z,8.10
2023-02-22T04:02:30.737Z,7.70
2023-02-22T04:03:29.488Z,7.00
2023-02-22T04:04:30.321Z,7.80
2023-02-22T04:05:30.138Z,8.00
2023-02-22T04:06:29.958Z,7.60
2023-02-22T04:07:29.957Z,8.00
2023-02-22T04:08:30.170Z,8.90
2023-02-22T04:09:29.963Z,7.30
2023-02-22T04:10:29.456Z,9.40
2023-02-22T04:11:30.390Z,8.50
2023-02-22T04:12:29.387Z,7.60
2023-02-22T04:13:29.407Z,9.20
2023-02-22T04:14:29.760Z,7.20
2023-02-22T04:15:29.356Z,11.40
2023-02-22T04:16:29.379Z,9.10
2023-02-22T04:17:29.542Z,9.10
2023-02-22T04:18:29.314Z,8.20
2023-02-22T04:19:29.303Z,8.70
2023-02-22T04:20:29.333Z,7.30
2023-02-22T04:21:29.649Z,9.50
2023-02-22T04:22:29.678Z,8.20
2023-02-22T04:23:29.712Z,8.90
2023-02-22T04:24:30.690Z,8.60
2023-02-22T04:25:29.251Z,7.70
2023-02-22T04:26:29.259Z,8.20
2023-02-22T04:27:29.222Z,8.20
2023-02-22T04:28:29.216Z,8.50
2023-02-22T04:29:29.898Z,6.80
2023-02-22T04:30:30.047Z,7.70
2023-02-22T04:31:29.790Z,8.80
2023-02-22T04:32:29.381Z,6.60
2023-02-22T04:33:29.450Z,8.10
2023-02-22T04:34:29.992Z,8.20
2023-02-22T04:35:29.116Z,7.10
2023-02-22T04:36:29.115Z,8.10
2023-02-22T04:37:29.968Z,8.30
2023-02-22T04:38:29.363Z,7.40
2023-02-22T04:39:29.132Z,10.10
2023-02-22T04:40:29.987Z,8.00
2023-02-22T04:41:29.047Z,7.50
2023-02-22T04:42:29.057Z,8.10
2023-02-22T04:43:29.041Z,7.60
2023-02-22T04:44:29.043Z,7.80
2023-02-22T04:45:29.018Z,8.10
2023-02-22T04:46:29.041Z,8.00
2023-02-22T04:47:28.977Z,7.80
2023-02-22T04:48:29.011Z,7.90
2023-02-22T04:49:28.969Z,7.20
2023-02-22T04:50:28.968Z,7.60
2023-02-22T04:51:28.951Z,8.20
2023-02-22T04:52:28.927Z,9.10
2023-02-22T04:53:29.000Z,8.00
2023-02-22T04:54:28.918Z,8.40
2023-02-22T04:55:28.947Z,7.60
2023-02-22T04:56:28.974Z,7.60
2023-02-22T04:57:28.996Z,6.50
2023-02-22T04:58:29.000Z,7.30
2023-02-22T04:59:28.840Z,8.00
2023-02-22T05:00:28.854Z,8.50
2023-02-22T05:01:28.900Z,8.20
2023-02-22T05:02:28.850Z,7.40
2023-02-22T05:03:28.806Z,9.60
2023-02-22T05:04:28.811Z,6.20
2023-02-22T05:05:28.783Z,7.00
2023-02-22T05:06:28.778Z,6.60
2023-02-22T05:07:28.745Z,6.50
2023-02-22T05:08:28.756Z,6.60
2023-02-22T05:09:28.997Z,6.70
2023-02-22T05:10:28.730Z,7.30
2023-02-22T05:11:28.718Z,5.20
2023-02-22T05:12:29.006Z,6.60
2023-02-22T05:13:28.678Z,6.30
2023-02-22T05:14:28.682Z,6.10
2023-02-22T05:15:28.656Z,6.90
2023-02-22T05:16:28.701Z,6.90
2023-02-22T05:17:29.000Z,6.90
2023-02-22T05:18:28.652Z,7.10
2023-02-22T05:19:28.604Z,6.80
2023-02-22T05:20:29.013Z,7.20
2023-02-22T05:21:28.601Z,7.70
2023-02-22T05:22:28.599Z,6.40
2023-02-22T05:23:28.604Z,6.40
2023-02-22T05:24:28.545Z,7.00
2023-02-22T05:25:29.024Z,8.40
2023-02-22T05:26:28.513Z,8.20
2023-02-22T05:27:28.537Z,6.70
2023-02-22T05:28:29.500Z,8.20
2023-02-22T05:29:28.510Z,7.20
2023-02-22T05:30:28.581Z,8.40
2023-02-22T05:31:28.551Z,8.60
2023-02-22T05:32:28.551Z,7.80
2023-02-22T05:33:29.104Z,8.40
2023-02-22T05:34:29.022Z,7.30
2023-02-22T05:35:28.446Z,8.00
2023-02-22T05:36:29.386Z,7.30
2023-02-22T05:37:28.448Z,7.40
2023-02-22T05:38:28.406Z,7.30
2023-02-22T05:39:29.039Z,7.70
2023-02-22T05:40:28.368Z,9.30
2023-02-22T05:41:29.433Z,6.40
2023-02-22T05:42:29.043Z,6.90
2023-02-22T05:43:28.367Z,5.80
2023-02-22T05:44:28.360Z,6.80
2023-02-22T05:45:28.363Z,8.10
2023-02-22T05:46:28.330Z,8.40
2023-02-22T05:47:28.298Z,6.50
2023-02-22T05:48:28.294Z,6.40
2023-02-22T05:49:28.467Z,6.50
2023-02-22T05:50:28.468Z,6.50
2023-02-22T05:51:28.275Z,6.90
2023-02-22T05:52:28.536Z,7.50
2023-02-22T05:53:28.230Z,7.40
2023-02-22T05:54:28.230Z,8.20
2023-02-22T05:55:28.211Z,7.50
2023-02-22T05:56:28.185Z,6.20
2023-02-22T05:57:28.719Z,7.60
2023-02-22T05:58:28.217Z,6.60
2023-02-22T05:59:28.178Z,7.10
2023-02-22T06:00:28.484Z,6.70
2023-02-22T06:01:28.847Z,6.90
2023-02-22T06:02:28.107Z,8.50
2023-02-22T06:03:28.122Z,7.60
2023-02-22T06:04:28.117Z,6.00
2023-02-22T06:05:29.013Z,7.10
2023-02-22T06:06:29.010Z,6.90
2023-02-22T06:07:28.072Z,6.40
2023-02-22T06:08:28.046Z,6.50
2023-02-22T06:09:28.047Z,5.50
2023-02-22T06:10:28.029Z,6.70
2023-02-22T06:11:28.047Z,5.70
2023-02-22T06:12:28.010Z,8.00
2023-02-22T06:13:28.055Z,6.50
2023-02-22T06:14:27.975Z,8.00
2023-02-22T06:15:28.055Z,7.00
2023-02-22T06:16:28.056Z,7.40
2023-02-22T06:17:27.971Z,9.00
2023-02-22T06:18:27.946Z,7.50
2023-02-22T06:19:27.935Z,7.80
2023-02-22T06:20:27.903Z,7.40
2023-02-22T06:21:28.656Z,7.50
2023-02-22T06:22:28.059Z,8.00
2023-02-22T06:23:28.067Z,6.90
2023-02-22T06:24:28.052Z,8.30
2023-02-22T06:25:27.874Z,6.20
2023-02-22T06:26:27.867Z,7.60
2023-02-22T06:27:27.857Z,7.10
2023-02-22T06:28:27.814Z,8.80
2023-02-22T06:29:27.965Z,7.70
2023-02-22T06:30:27.850Z,7.30
2023-02-22T06:31:27.846Z,7.50
2023-02-22T06:32:27.848Z,6.60
2023-02-22T06:33:27.774Z,7.20
2023-02-22T06:34:27.755Z,7.20
2023-02-22T06:35:27.750Z,6.50
2023-02-22T06:36:27.975Z,8.50
2023-02-22T06:37:28.017Z,7.40
2023-02-22T06:38:28.042Z,7.20
2023-02-22T06:39:27.709Z,6.80
2023-02-22T06:40:28.061Z,7.90
2023-02-22T06:41:27.711Z,6.50
2023-02-22T06:42:28.050Z,7.10
2023-02-22T06:43:27.690Z,7.90
2023-02-22T06:44:27.624Z,6.40
2023-02-22T06:45:28.301Z,7.00
2023-02-22T06:46:28.069Z,7.10
2023-02-22T06:47:28.362Z,7.50
2023-02-22T06:48:28.072Z,7.00
2023-02-22T06:49:27.598Z,7.50
2023-02-22T06:50:27.584Z,5.70
2023-02-22T06:51:27.588Z,6.50
2023-02-22T06:52:27.555Z,8.00
2023-02-22T06:53:28.069Z,6.60
2023-02-22T06:54:28.078Z,8.90
2023-02-22T06:55:28.474Z,6.80
2023-02-22T06:56:28.365Z,7.60
2023-02-22T06:57:28.076Z,6.50
2023-02-22T06:58:27.495Z,6.80
2023-02-22T06:59:27.490Z,6.80
2023-02-22T07:00:27.603Z,9.00
2023-02-22T07:01:27.694Z,8.50
2023-02-22T07:02:28.076Z,6.70
2023-02-22T07:03:27.523Z,7.00
2023-02-22T07:04:27.403Z,7.80
2023-02-22T07:05:28.097Z,7.30
2023-02-22T07:06:27.393Z,7.70
2023-02-22T07:07:27.392Z,7.60
2023-02-22T07:08:27.365Z,7.30
2023-02-22T07:09:27.387Z,8.90
2023-02-22T07:10:27.349Z,6.80
2023-02-22T07:11:27.340Z,7.20
2023-02-22T07:12:27.314Z,7.50
2023-02-22T07:13:27.360Z,8.60
2023-02-22T07:14:27.553Z,7.50
2023-02-22T07:15:27.589Z,7.20
2023-02-22T07:16:27.373Z,8.40
2023-02-22T07:17:27.332Z,8.00
2023-02-22T07:18:28.925Z,7.60
2023-02-22T07:19:27.284Z,7.30
2023-02-22T07:20:27.402Z,7.20
2023-02-22T07:21:27.223Z,8.30
2023-02-22T07:22:27.205Z,8.20
2023-02-22T07:23:27.499Z,7.60
2023-02-22T07:24:27.180Z,7.80
2023-02-22T07:25:27.573Z,7.20
2023-02-22T07:26:27.313Z,8.50
2023-02-22T07:27:27.154Z,7.70
2023-02-22T07:28:27.127Z,8.40
2023-02-22T07:29:27.701Z,8.80
2023-02-22T07:30:27.161Z,9.30
2023-02-22T07:31:29.572Z,7.90
2023-02-22T07:32:27.163Z,7.80
2023-02-22T07:33:27.122Z,8.50
2023-02-22T07:34:27.063Z,7.10
2023-02-22T07:35:27.093Z,6.80
2023-02-22T07:36:27.044Z,7.90
2023-02-22T07:37:27.048Z,6.30
2023-02-22T07:38:27.024Z,6.70
2023-02-22T07:39:27.058Z,7.00
2023-02-22T07:40:27.013Z,7.60
2023-02-22T07:41:27.112Z,7.30
2023-02-22T07:42:27.113Z,7.20
2023-02-22T07:43:27.041Z,6.90
2023-02-22T07:44:27.127Z,7.10
2023-02-22T07:45:26.990Z,7.50
2023-02-22T07:46:26.942Z,7.20
2023-02-22T07:47:26.939Z,8.20
2023-02-22T07:48:27.970Z,7.20
2023-02-22T07:49:27.120Z,8.50
2023-02-22T07:50:27.121Z,6.50
2023-02-22T07:51:27.109Z,6.60
2023-02-22T07:52:26.904Z,6.60
2023-02-22T07:53:28.725Z,6.40
2023-02-22T07:54:26.852Z,6.50
2023-02-22T07:55:26.847Z,7.20
2023-02-22T07:56:26.849Z,6.10
2023-02-22T07:57:26.826Z,6.10
2023-02-22T07:58:26.788Z,7.50
2023-02-22T07:59:26.792Z,6.80
2023-02-22T08:00:27.134Z,6.30
2023-02-22T08:01:26.782Z,7.20
2023-02-22T08:02:26.776Z,7.10
2023-02-22T08:03:26.791Z,6.30
2023-02-22T08:04:26.727Z,5.50
2023-02-22T08:05:26.719Z,6.00
2023-02-22T08:06:26.722Z,6.30
2023-02-22T08:07:26.715Z,6.70
2023-02-22T08:08:26.698Z,6.30
2023-02-22T08:09:26.688Z,6.60
2023-02-22T08:10:26.700Z,6.90
2023-02-22T08:11:26.675Z,6.40
2023-02-22T08:12:26.633Z,7.40
2023-02-22T08:13:27.123Z,6.60
2023-02-22T08:14:26.619Z,7.30
2023-02-22T08:15:26.636Z,7.60
2023-02-22T08:16:26.600Z,7.20
2023-02-22T08:17:26.579Z,7.90
2023-02-22T08:18:26.639Z,8.50
2023-02-22T08:19:26.562Z,10.10
2023-02-22T08:20:26.536Z,8.40
2023-02-22T08:21:26.596Z,9.20
2023-02-22T08:22:27.132Z,9.20
2023-02-22T08:23:26.517Z,7.80
2023-02-22T08:24:26.493Z,7.20
2023-02-22T08:25:26.580Z,8.10
2023-02-22T08:26:27.148Z,8.00
2023-02-22T08:27:26.489Z,7.60
2023-02-22T08:28:26.470Z,6.60
2023-02-22T08:29:27.150Z,7.00
2023-02-22T08:30:26.483Z,6.50
2023-02-22T08:31:26.471Z,7.50
2023-02-22T08:32:27.296Z,6.70
2023-02-22T08:33:26.546Z,7.30
2023-02-22T08:34:26.388Z,6.60
2023-02-22T08:35:26.466Z,7.10
2023-02-22T08:36:26.490Z,7.30
2023-02-22T08:37:26.531Z,7.00
2023-02-22T08:38:26.348Z,6.70
2023-02-22T08:39:26.335Z,7.40
2023-02-22T08:40:26.649Z,7.80
2023-02-22T08:41:26.328Z,8.00
2023-02-22T08:42:26.716Z,7.70
2023-02-22T08:43:26.786Z,8.40
2023-02-22T08:44:26.797Z,7.40
2023-02-22T08:45:26.830Z,7.40
2023-02-22T08:46:26.856Z,7.30
2023-02-22T08:47:26.249Z,7.40
2023-02-22T08:48:26.238Z,8.40
2023-02-22T08:49:26.220Z,7.80
2023-02-22T08:50:26.300Z,6.80
2023-02-22T08:51:27.793Z,8.10
2023-02-22T08:52:26.356Z,7.80
2023-02-22T08:53:26.187Z,6.50
2023-02-22T08:54:26.155Z,6.10
2023-02-22T08:55:26.844Z,6.40
2023-02-22T08:56:26.498Z,6.70
2023-02-22T08:57:26.327Z,6.80
2023-02-22T08:58:26.557Z,6.60
2023-02-22T08:59:26.179Z,6.10
2023-02-22T09:00:26.243Z,6.80
2023-02-22T09:01:33.060Z,7.00
2023-02-22T09:02:27.164Z,6.10
2023-02-22T09:03:26.750Z,7.50
2023-02-22T09:04:26.747Z,6.70
2023-02-22T09:05:26.184Z,5.90
2023-02-22T09:06:26.547Z,6.00
2023-02-22T09:07:26.053Z,7.70
2023-02-22T09:08:26.199Z,6.80
2023-02-22T09:09:26.176Z,6.00
2023-02-22T09:10:26.176Z,6.90
2023-02-22T09:11:26.963Z,6.60
2023-02-22T09:12:26.332Z,7.00
2023-02-22T09:13:26.175Z,6.60
2023-02-22T09:14:25.915Z,6.90
2023-02-22T09:15:25.953Z,7.10
2023-02-22T09:16:26.020Z,8.20
2023-02-22T09:17:26.011Z,7.70
2023-02-22T09:18:30.517Z,7.00
2023-02-22T09:19:27.210Z,7.70
2023-02-22T09:20:26.118Z,8.30
2023-02-22T09:21:26.179Z,9.20
2023-02-22T09:22:26.171Z,9.40
2023-02-22T09:23:25.874Z,9.30
2023-02-22T09:24:26.178Z,9.70
2023-02-22T09:25:26.198Z,9.00
2023-02-22T09:26:26.182Z,9.90
2023-02-22T09:27:25.783Z,9.60
2023-02-22T09:28:27.306Z,9.30
2023-02-22T09:29:27.216Z,8.30
2023-02-22T09:30:26.231Z,10.40
2023-02-22T09:31:26.325Z,8.90
2023-02-22T09:32:26.416Z,8.60
2023-02-22T09:33:25.747Z,9.00
2023-02-22T09:34:25.686Z,8.60
2023-02-22T09:35:25.747Z,7.40
2023-02-22T09:36:26.266Z,7.60
2023-02-22T09:37:25.821Z,7.20
2023-02-22T09:38:25.856Z,7.30
2023-02-22T09:39:25.718Z,7.50
2023-02-22T09:40:25.643Z,8.00
2023-02-22T09:41:25.956Z,7.50
2023-02-22T09:42:25.624Z,8.10
2023-02-22T09:43:25.589Z,8.50
2023-02-22T09:44:26.536Z,9.20
2023-02-22T09:45:25.553Z,8.40
2023-02-22T09:46:26.086Z,6.70
2023-02-22T09:47:26.176Z,7.30
2023-02-22T09:48:25.525Z,7.70
2023-02-22T09:49:26.195Z,6.90
2023-02-22T09:50:25.517Z,7.00
2023-02-22T09:51:25.482Z,6.70
2023-02-22T09:52:26.211Z,7.10
2023-02-22T09:53:26.438Z,7.40
2023-02-22T09:54:25.465Z,7.00
2023-02-22T09:55:26.198Z,6.80
2023-02-22T09:56:25.466Z,7.10
2023-02-22T09:57:25.465Z,5.50
2023-02-22T09:58:25.435Z,6.10
2023-02-22T09:59:25.394Z,6.20
2023-02-22T10:00:25.590Z,6.30
2023-02-22T10:01:25.388Z,6.60
2023-02-22T10:02:25.379Z,8.10
2023-02-22T10:03:25.383Z,8.10
2023-02-22T10:04:25.732Z,7.70
2023-02-22T10:05:25.385Z,8.20
2023-02-22T10:06:25.358Z,8.60
2023-02-22T10:07:25.307Z,6.90
2023-02-22T10:08:25.879Z,7.30
2023-02-22T10:09:25.289Z,8.10
2023-02-22T10:10:25.282Z,8.40
2023-02-22T10:11:25.257Z,7.80
2023-02-22T10:12:25.298Z,8.70
2023-02-22T10:13:25.237Z,7.30
2023-02-22T10:14:25.230Z,7.30
2023-02-22T10:15:25.203Z,6.30
2023-02-22T10:16:25.326Z,8.10
2023-02-22T10:17:25.210Z,9.10
2023-02-22T10:18:25.188Z,7.20
2023-02-22T10:19:25.170Z,6.70
2023-02-22T10:20:25.214Z,8.20
2023-02-22T10:21:25.139Z,6.70
2023-02-22T10:22:25.183Z,6.50
2023-02-22T10:23:25.113Z,7.10
2023-02-22T10:24:25.119Z,6.20
2023-02-22T10:25:25.115Z,7.20
2023-02-22T10:26:25.116Z,8.10
2023-02-22T10:27:25.061Z,6.40
2023-02-22T10:28:25.089Z,8.30
2023-02-22T10:29:25.243Z,6.10
2023-02-22T10:30:25.826Z,5.90
2023-02-22T10:31:25.186Z,7.60
2023-02-22T10:32:25.035Z,6.60
2023-02-22T10:33:25.003Z,6.60
2023-02-22T10:34:25.029Z,6.70
2023-02-22T10:35:25.220Z,6.20
2023-02-22T10:36:25.161Z,6.90
2023-02-22T10:37:24.978Z,5.90
2023-02-22T10:38:24.994Z,6.40
2023-02-22T10:39:24.942Z,6.90
2023-02-22T10:40:25.079Z,6.70
2023-02-22T10:41:24.903Z,6.70
2023-02-22T10:42:25.167Z,6.10
2023-02-22T10:43:24.892Z,7.20
2023-02-22T10:44:24.922Z,5.70
2023-02-22T10:45:25.251Z,6.80
2023-02-22T10:46:25.122Z,7.40
2023-02-22T10:47:24.842Z,7.10
2023-02-22T10:48:25.268Z,7.20
2023-02-22T10:49:25.038Z,7.20
2023-02-22T10:50:25.238Z,6.70
2023-02-22T10:51:25.037Z,6.60
2023-02-22T10:52:25.258Z,6.20
2023-02-22T10:53:25.255Z,7.30
2023-02-22T10:54:24.794Z,7.80
2023-02-22T10:55:24.748Z,7.00
2023-02-22T10:56:25.265Z,6.90
2023-02-22T10:57:24.716Z,7.80
2023-02-22T10:58:24.748Z,8.30
2023-02-22T10:59:25.672Z,7.50
2023-02-22T11:00:25.277Z,8.00
2023-02-22T11:01:25.300Z,9.40
2023-02-22T11:02:25.279Z,7.50
2023-02-22T11:03:24.655Z,8.90
2023-02-22T11:04:25.279Z,7.30
2023-02-22T11:05:24.672Z,7.50
2023-02-22T11:06:24.631Z,8.50
2023-02-22T11:07:24.605Z,8.70
2023-02-22T11:08:24.640Z,9.70
2023-02-22T11:09:24.828Z,9.50
2023-02-22T11:10:24.596Z,9.80
2023-02-22T11:11:24.583Z,9.30
2023-02-22T11:12:24.909Z,9.70
2023-02-22T11:13:24.937Z,9.20
2023-02-22T11:14:24.565Z,11.10
2023-02-22T11:15:24.516Z,10.20
2023-02-22T11:16:25.078Z,10.00
2023-02-22T11:17:24.493Z,8.70
2023-02-22T11:18:24.495Z,9.00
2023-02-22T11:19:24.543Z,8.70
2023-02-22T11:20:24.626Z,8.90
2023-02-22T11:21:24.499Z,9.10
2023-02-22T11:22:24.462Z,9.40
2023-02-22T11:23:24.411Z,8.50
2023-02-22T11:24:24.742Z,9.30
2023-02-22T11:25:24.769Z,9.80
2023-02-22T11:26:24.404Z,11.10
2023-02-22T11:27:24.468Z,11.40
2023-02-22T11:28:24.872Z,9.80
2023-02-22T11:29:24.479Z,12.20
2023-02-22T11:30:24.396Z,10.50
2023-02-22T11:31:24.370Z,10.70
2023-02-22T11:32:25.140Z,10.10
2023-02-22T11:33:24.297Z,10.30
2023-02-22T11:34:24.352Z,10.80
2023-02-22T11:35:24.504Z,10.10
2023-02-22T11:36:24.312Z,9.90
2023-02-22T11:37:24.274Z,10.20
2023-02-22T11:38:24.249Z,10.50
2023-02-22T11:39:24.252Z,10.40
2023-02-22T11:40:25.165Z,9.80
2023-02-22T11:41:24.327Z,10.50
2023-02-22T11:42:24.233Z,9.60
2023-02-22T11:43:24.466Z,10.10
2023-02-22T11:44:24.314Z,11.40
2023-02-22T11:45:24.284Z,11.70
2023-02-22T11:46:24.318Z,10.40
2023-02-22T11:47:24.282Z,10.80
2023-02-22T11:48:24.294Z,11.30
2023-02-22T11:49:24.115Z,9.80
2023-02-22T11:50:24.185Z,10.50
2023-02-22T11:51:24.105Z,10.90
2023-02-22T11:52:26.774Z,9.90
2023-02-22T11:53:24.200Z,9.80
2023-02-22T11:54:24.075Z,10.00
2023-02-22T11:55:36.393Z,11.40
2023-02-22T11:56:36.975Z,10.40
2023-02-22T11:57:25.332Z,10.20
2023-02-22T11:58:24.028Z,10.70
2023-02-22T11:59:24.023Z,12.00
2023-02-22T12:00:24.087Z,10.00
2023-02-22T12:01:23.950Z,10.90
2023-02-22T12:02:23.989Z,10.80
2023-02-22T12:03:24.218Z,10.40
2023-02-22T12:04:24.247Z,10.20
2023-02-22T12:05:24.293Z,10.60
2023-02-22T12:06:24.298Z,10.60
2023-02-22T12:07:23.915Z,10.90
2023-02-22T12:08:24.315Z,9.10
2023-02-22T12:09:24.153Z,11.70
2023-02-22T12:10:24.321Z,9.40
2023-02-22T12:11:23.853Z,9.10
2023-02-22T12:12:24.386Z,10.60
2023-02-22T12:13:24.327Z,12.00
2023-02-22T12:14:23.822Z,12.50
2023-02-22T12:15:23.834Z,11.80
2023-02-22T12:16:25.256Z,11.90
2023-02-22T12:17:23.812Z,10.10
2023-02-22T12:18:23.785Z,10.40
2023-02-22T12:19:23.763Z,11.10
2023-02-22T12:20:23.770Z,9.20
2023-02-22T12:21:24.317Z,9.40
2023-02-22T12:22:23.741Z,10.20
2023-02-22T12:23:23.728Z,9.70
2023-02-22T12:24:24.170Z,10.20
2023-02-22T12:25:23.686Z,9.70
2023-02-22T12:26:23.692Z,9.70
2023-02-22T12:27:23.666Z,10.00
2023-02-22T12:28:25.501Z,10.20
2023-02-22T12:29:23.678Z,9.00
2023-02-22T12:30:23.766Z,10.30
2023-02-22T12:31:24.423Z,9.00
2023-02-22T12:32:24.450Z,10.80
2023-02-22T12:33:23.625Z,9.60
2023-02-22T12:34:23.630Z,10.00
2023-02-22T12:35:23.636Z,11.50
2023-02-22T12:36:23.650Z,11.70
2023-02-22T12:37:23.700Z,9.50
2023-02-22T12:38:23.609Z,10.50
2023-02-22T12:39:23.552Z,10.60
2023-02-22T12:40:23.536Z,10.50
2023-02-22T12:41:23.501Z,9.70
2023-02-22T12:42:23.520Z,9.80
2023-02-22T12:43:23.525Z,10.50
2023-02-22T12:44:23.510Z,10.20
2023-02-22T12:45:23.452Z,9.70
2023-02-22T12:46:23.475Z,12.90
2023-02-22T12:47:23.819Z,10.80
2023-02-22T12:48:23.855Z,11.00
2023-02-22T12:49:23.463Z,12.20
2023-02-22T12:50:23.488Z,10.30
2023-02-22T12:51:23.383Z,12.00
2023-02-22T12:52:23.425Z,11.40
2023-02-22T12:53:23.420Z,11.60
2023-02-22T12:54:23.376Z,10.70
2023-02-22T12:55:23.348Z,10.40
2023-02-22T12:56:23.401Z,9.10
2023-02-22T12:57:23.301Z,8.30
2023-02-22T12:58:23.329Z,8.00
2023-02-22T12:59:23.308Z,9.20
2023-02-22T13:00:23.288Z,8.50
2023-02-22T13:01:23.342Z,8.60
2023-02-22T13:02:23.284Z,8.90
2023-02-22T13:03:23.253Z,8.50
2023-02-22T13:04:23.423Z,9.30
2023-02-22T13:05:23.340Z,10.20
2023-02-22T13:06:23.229Z,9.30
2023-02-22T13:07:23.217Z,10.20
2023-02-22T13:08:23.236Z,9.80
2023-02-22T13:09:23.211Z,9.40
2023-02-22T13:10:23.183Z,11.40
2023-02-22T13:11:23.178Z,10.10